sensor_id;sensor_type;location;lat;lon;timestamp;P1;durP1;ratioP1;P2;durP2;ratioP2
67747;SDS011;54543;50.712;6.070;2022-07-21T00:01:18;4.40;;;3.13;;
67747;SDS011;54543;50.712;6.070;2022-07-21T00:03:43;4.40;;;2.97;;
67747;SDS011;54543;50.712;6.070;2022-07-21T00:06:10;5.07;;;3.65;;
67747;SDS011;54543;50.712;6.070;2022-07-21T00:08:35;5.32;;;3.85;;
67747;SDS011;54543;50.712;6.070;2022-07-21T00:11:01;4.32;;;3.30;;
67747;SDS011;54543;50.712;6.070;2022-07-21T00:13:27;5.00;;;3.60;;
67747;SDS011;54543;50.712;6.070;2022-07-21T00:15:53;5.32;;;3.75;;
67747;SDS011;54543;50.712;6.070;2022-07-21T00:18:18;4.35;;;3.42;;
67747;SDS011;54543;50.712;6.070;2022-07-21T00:20:45;5.35;;;3.38;;
67747;SDS011;54543;50.712;6.070;2022-07-21T00:23:10;4.93;;;3.50;;
67747;SDS011;54543;50.712;6.070;2022-07-21T00:25:36;4.22;;;3.35;;
67747;SDS011;54543;50.712;6.070;2022-07-21T00:28:02;5.15;;;3.75;;
67747;SDS011;54543;50.712;6.070;2022-07-21T00:30:29;5.82;;;3.70;;
67747;SDS011;54543;50.712;6.070;2022-07-21T00:32:54;6.25;;;4.55;;
67747;SDS011;54543;50.712;6.070;2022-07-21T00:35:20;5.30;;;3.88;;
67747;SDS011;54543;50.712;6.070;2022-07-21T00:37:45;5.32;;;4.13;;
67747;SDS011;54543;50.712;6.070;2022-07-21T00:40:11;5.28;;;4.05;;
67747;SDS011;54543;50.712;6.070;2022-07-21T00:42:38;5.65;;;4.55;;
67747;SDS011;54543;50.712;6.070;2022-07-21T00:45:05;5.78;;;4.20;;
67747;SDS011;54543;50.712;6.070;2022-07-21T00:47:33;4.95;;;3.80;;
67747;SDS011;54543;50.712;6.070;2022-07-21T00:50:01;10.45;;;4.60;;
67747;SDS011;54543;50.712;6.070;2022-07-21T00:52:29;8.40;;;5.80;;
67747;SDS011;54543;50.712;6.070;2022-07-21T00:54:56;6.40;;;4.55;;
67747;SDS011;54543;50.712;6.070;2022-07-21T00:57:22;6.30;;;4.70;;
67747;SDS011;54543;50.712;6.070;2022-07-21T00:59:47;7.15;;;5.30;;
67747;SDS011;54543;50.712;6.070;2022-07-21T01:02:13;7.70;;;5.80;;
67747;SDS011;54543;50.712;6.070;2022-07-21T01:04:39;6.85;;;5.38;;
67747;SDS011;54543;50.712;6.070;2022-07-21T01:07:06;6.25;;;5.20;;
67747;SDS011;54543;50.712;6.070;2022-07-21T01:09:33;8.55;;;5.68;;
67747;SDS011;54543;50.712;6.070;2022-07-21T01:12:01;6.05;;;4.47;;
67747;SDS011;54543;50.712;6.070;2022-07-21T01:14:27;6.90;;;4.72;;
67747;SDS011;54543;50.712;6.070;2022-07-21T01:16:53;8.68;;;5.70;;
67747;SDS011;54543;50.712;6.070;2022-07-21T01:19:19;7.97;;;5.70;;
67747;SDS011;54543;50.712;6.070;2022-07-21T01:21:46;7.60;;;5.75;;
67747;SDS011;54543;50.712;6.070;2022-07-21T01:24:13;7.18;;;5.07;;
67747;SDS011;54543;50.712;6.070;2022-07-21T01:26:49;7.50;;;5.78;;
67747;SDS011;54543;50.712;6.070;2022-07-21T01:29:16;6.88;;;4.82;;
67747;SDS011;54543;50.712;6.070;2022-07-21T01:31:43;6.43;;;5.22;;
67747;SDS011;54543;50.712;6.070;2022-07-21T01:34:11;6.60;;;4.97;;
67747;SDS011;54543;50.712;6.070;2022-07-21T01:36:37;6.93;;;5.40;;
67747;SDS011;54543;50.712;6.070;2022-07-21T01:39:03;6.65;;;5.43;;
67747;SDS011;54543;50.712;6.070;2022-07-21T01:44:14;6.85;;;5.07;;
67747;SDS011;54543;50.712;6.070;2022-07-21T01:46:41;6.20;;;4.90;;
67747;SDS011;54543;50.712;6.070;2022-07-21T01:49:09;8.75;;;5.70;;
67747;SDS011;54543;50.712;6.070;2022-07-21T01:51:35;6.03;;;4.63;;
67747;SDS011;54543;50.712;6.070;2022-07-21T01:54:02;6.35;;;5.25;;
67747;SDS011;54543;50.712;6.070;2022-07-21T01:56:29;6.47;;;4.72;;
67747;SDS011;54543;50.712;6.070;2022-07-21T01:58:55;7.18;;;5.45;;
67747;SDS011;54543;50.712;6.070;2022-07-21T02:01:22;5.93;;;4.93;;
67747;SDS011;54543;50.712;6.070;2022-07-21T02:03:54;7.50;;;5.18;;
67747;SDS011;54543;50.712;6.070;2022-07-21T02:06:24;5.80;;;4.80;;
67747;SDS011;54543;50.712;6.070;2022-07-21T02:08:50;6.25;;;4.88;;
67747;SDS011;54543;50.712;6.070;2022-07-21T02:11:16;5.65;;;4.75;;
67747;SDS011;54543;50.712;6.070;2022-07-21T02:13:43;5.78;;;4.20;;
67747;SDS011;54543;50.712;6.070;2022-07-21T02:16:09;6.35;;;4.97;;
67747;SDS011;54543;50.712;6.070;2022-07-21T02:18:35;6.72;;;4.80;;
67747;SDS011;54543;50.712;6.070;2022-07-21T02:21:01;7.10;;;5.38;;
67747;SDS011;54543;50.712;6.070;2022-07-21T02:23:27;5.68;;;4.63;;
67747;SDS011;54543;50.712;6.070;2022-07-21T02:25:52;6.70;;;5.40;;
67747;SDS011;54543;50.712;6.070;2022-07-21T02:28:19;6.72;;;5.18;;
67747;SDS011;54543;50.712;6.070;2022-07-21T02:30:45;8.20;;;5.60;;
67747;SDS011;54543;50.712;6.070;2022-07-21T02:33:11;7.22;;;5.20;;
67747;SDS011;54543;50.712;6.070;2022-07-21T02:35:37;6.35;;;4.95;;
67747;SDS011;54543;50.712;6.070;2022-07-21T02:38:04;6.85;;;5.40;;
67747;SDS011;54543;50.712;6.070;2022-07-21T02:40:29;7.70;;;5.25;;
67747;SDS011;54543;50.712;6.070;2022-07-21T02:42:55;7.38;;;5.93;;
67747;SDS011;54543;50.712;6.070;2022-07-21T02:45:21;8.45;;;6.68;;
67747;SDS011;54543;50.712;6.070;2022-07-21T02:50:20;7.72;;;5.45;;
67747;SDS011;54543;50.712;6.070;2022-07-21T02:52:48;7.68;;;5.80;;
67747;SDS011;54543;50.712;6.070;2022-07-21T02:55:14;6.63;;;5.70;;
67747;SDS011;54543;50.712;6.070;2022-07-21T02:57:40;6.72;;;5.45;;
67747;SDS011;54543;50.712;6.070;2022-07-21T03:00:07;7.13;;;5.93;;
67747;SDS011;54543;50.712;6.070;2022-07-21T03:02:34;8.52;;;6.13;;
67747;SDS011;54543;50.712;6.070;2022-07-21T03:05:00;6.82;;;5.35;;
67747;SDS011;54543;50.712;6.070;2022-07-21T03:07:25;7.85;;;5.78;;
67747;SDS011;54543;50.712;6.070;2022-07-21T03:09:51;8.07;;;6.15;;
67747;SDS011;54543;50.712;6.070;2022-07-21T03:12:17;7.53;;;6.07;;
67747;SDS011;54543;50.712;6.070;2022-07-21T03:14:43;7.22;;;5.70;;
67747;SDS011;54543;50.712;6.070;2022-07-21T03:17:08;7.32;;;6.15;;
67747;SDS011;54543;50.712;6.070;2022-07-21T03:19:34;9.43;;;7.03;;
67747;SDS011;54543;50.712;6.070;2022-07-21T03:21:59;11.10;;;8.52;;
67747;SDS011;54543;50.712;6.070;2022-07-21T03:24:25;8.57;;;6.93;;
67747;SDS011;54543;50.712;6.070;2022-07-21T03:26:50;8.02;;;6.18;;
67747;SDS011;54543;50.712;6.070;2022-07-21T03:29:16;12.38;;;8.88;;
67747;SDS011;54543;50.712;6.070;2022-07-21T03:31:42;9.15;;;7.68;;
67747;SDS011;54543;50.712;6.070;2022-07-21T03:34:07;9.15;;;6.90;;
67747;SDS011;54543;50.712;6.070;2022-07-21T03:36:33;8.95;;;6.78;;
67747;SDS011;54543;50.712;6.070;2022-07-21T03:38:58;9.95;;;8.00;;
67747;SDS011;54543;50.712;6.070;2022-07-21T03:41:24;10.57;;;7.18;;
67747;SDS011;54543;50.712;6.070;2022-07-21T03:43:50;11.10;;;8.93;;
67747;SDS011;54543;50.712;6.070;2022-07-21T03:46:15;9.77;;;7.07;;
67747;SDS011;54543;50.712;6.070;2022-07-21T03:48:41;14.07;;;9.23;;
67747;SDS011;54543;50.712;6.070;2022-07-21T03:51:07;11.35;;;8.45;;
67747;SDS011;54543;50.712;6.070;2022-07-21T03:53:33;8.15;;;6.97;;
67747;SDS011;54543;50.712;6.070;2022-07-21T03:55:59;13.60;;;10.02;;
67747;SDS011;54543;50.712;6.070;2022-07-21T03:58:25;9.98;;;8.38;;
67747;SDS011;54543;50.712;6.070;2022-07-21T04:00:50;13.10;;;9.77;;
67747;SDS011;54543;50.712;6.070;2022-07-21T04:03:16;12.65;;;9.50;;
67747;SDS011;54543;50.712;6.070;2022-07-21T04:05:41;10.63;;;8.95;;
67747;SDS011;54543;50.712;6.070;2022-07-21T04:08:08;11.70;;;8.63;;
67747;SDS011;54543;50.712;6.070;2022-07-21T04:10:35;11.43;;;8.68;;
67747;SDS011;54543;50.712;6.070;2022-07-21T04:13:03;10.85;;;6.82;;
67747;SDS011;54543;50.712;6.070;2022-07-21T04:15:30;9.45;;;7.72;;
67747;SDS011;54543;50.712;6.070;2022-07-21T04:17:56;10.43;;;7.93;;
67747;SDS011;54543;50.712;6.070;2022-07-21T04:20:22;9.52;;;6.88;;
67747;SDS011;54543;50.712;6.070;2022-07-21T04:22:48;10.27;;;7.68;;
67747;SDS011;54543;50.712;6.070;2022-07-21T04:25:15;10.80;;;8.07;;
67747;SDS011;54543;50.712;6.070;2022-07-21T04:27:42;10.30;;;8.55;;
67747;SDS011;54543;50.712;6.070;2022-07-21T04:30:11;9.80;;;8.13;;
67747;SDS011;54543;50.712;6.070;2022-07-21T04:32:39;14.43;;;9.70;;
67747;SDS011;54543;50.712;6.070;2022-07-21T04:35:06;9.38;;;7.28;;
67747;SDS011;54543;50.712;6.070;2022-07-21T04:37:32;10.65;;;8.18;;
67747;SDS011;54543;50.712;6.070;2022-07-21T04:39:58;8.38;;;6.78;;
67747;SDS011;54543;50.712;6.070;2022-07-21T04:42:24;11.65;;;8.30;;
67747;SDS011;54543;50.712;6.070;2022-07-21T04:44:49;11.10;;;8.70;;
67747;SDS011;54543;50.712;6.070;2022-07-21T04:47:15;10.02;;;7.45;;
67747;SDS011;54543;50.712;6.070;2022-07-21T04:49:40;9.90;;;8.10;;
67747;SDS011;54543;50.712;6.070;2022-07-21T04:52:06;11.80;;;8.65;;
67747;SDS011;54543;50.712;6.070;2022-07-21T04:54:32;11.75;;;9.02;;
67747;SDS011;54543;50.712;6.070;2022-07-21T04:56:57;11.68;;;8.85;;
67747;SDS011;54543;50.712;6.070;2022-07-21T04:59:24;8.93;;;7.57;;
67747;SDS011;54543;50.712;6.070;2022-07-21T05:01:50;11.73;;;7.95;;
67747;SDS011;54543;50.712;6.070;2022-07-21T05:04:15;10.10;;;8.25;;
67747;SDS011;54543;50.712;6.070;2022-07-21T05:06:41;8.88;;;6.55;;
67747;SDS011;54543;50.712;6.070;2022-07-21T05:09:06;10.93;;;8.77;;
67747;SDS011;54543;50.712;6.070;2022-07-21T05:11:32;10.55;;;8.38;;
67747;SDS011;54543;50.712;6.070;2022-07-21T05:13:58;13.38;;;9.88;;
67747;SDS011;54543;50.712;6.070;2022-07-21T05:16:24;10.48;;;7.70;;
67747;SDS011;54543;50.712;6.070;2022-07-21T05:18:49;10.02;;;7.53;;
67747;SDS011;54543;50.712;6.070;2022-07-21T05:21:15;9.75;;;7.75;;
67747;SDS011;54543;50.712;6.070;2022-07-21T05:23:41;11.77;;;6.80;;
67747;SDS011;54543;50.712;6.070;2022-07-21T05:26:06;18.40;;;8.05;;
67747;SDS011;54543;50.712;6.070;2022-07-21T05:28:32;10.85;;;6.93;;
67747;SDS011;54543;50.712;6.070;2022-07-21T05:30:57;9.43;;;7.85;;
67747;SDS011;54543;50.712;6.070;2022-07-21T05:33:23;10.65;;;7.97;;
67747;SDS011;54543;50.712;6.070;2022-07-21T05:35:49;22.45;;;17.30;;
67747;SDS011;54543;50.712;6.070;2022-07-21T05:38:14;16.42;;;10.93;;
67747;SDS011;54543;50.712;6.070;2022-07-21T05:40:40;13.52;;;9.80;;
67747;SDS011;54543;50.712;6.070;2022-07-21T05:43:06;13.30;;;9.13;;
67747;SDS011;54543;50.712;6.070;2022-07-21T05:45:31;11.43;;;7.75;;
67747;SDS011;54543;50.712;6.070;2022-07-21T05:47:57;10.15;;;7.22;;
67747;SDS011;54543;50.712;6.070;2022-07-21T05:50:22;11.05;;;7.70;;
67747;SDS011;54543;50.712;6.070;2022-07-21T05:52:49;10.02;;;6.90;;
67747;SDS011;54543;50.712;6.070;2022-07-21T05:55:14;9.23;;;7.05;;
67747;SDS011;54543;50.712;6.070;2022-07-21T05:57:40;9.75;;;7.22;;
67747;SDS011;54543;50.712;6.070;2022-07-21T06:00:06;7.45;;;6.32;;
67747;SDS011;54543;50.712;6.070;2022-07-21T06:02:32;9.20;;;7.30;;
67747;SDS011;54543;50.712;6.070;2022-07-21T06:04:58;8.15;;;6.22;;
67747;SDS011;54543;50.712;6.070;2022-07-21T06:07:24;11.10;;;7.15;;
67747;SDS011;54543;50.712;6.070;2022-07-21T06:09:49;7.85;;;6.03;;
67747;SDS011;54543;50.712;6.070;2022-07-21T06:12:15;8.68;;;6.07;;
67747;SDS011;54543;50.712;6.070;2022-07-21T06:14:40;7.35;;;5.15;;
67747;SDS011;54543;50.712;6.070;2022-07-21T06:17:06;9.20;;;7.38;;
67747;SDS011;54543;50.712;6.070;2022-07-21T06:19:32;7.38;;;6.07;;
67747;SDS011;54543;50.712;6.070;2022-07-21T06:21:57;7.93;;;5.78;;
67747;SDS011;54543;50.712;6.070;2022-07-21T06:24:24;7.55;;;5.47;;
67747;SDS011;54543;50.712;6.070;2022-07-21T06:26:49;8.27;;;5.63;;
67747;SDS011;54543;50.712;6.070;2022-07-21T06:29:15;7.95;;;5.93;;
67747;SDS011;54543;50.712;6.070;2022-07-21T06:31:40;6.63;;;4.90;;
67747;SDS011;54543;50.712;6.070;2022-07-21T06:34:06;7.05;;;5.40;;
67747;SDS011;54543;50.712;6.070;2022-07-21T06:36:31;10.07;;;6.38;;
67747;SDS011;54543;50.712;6.070;2022-07-21T06:38:57;7.95;;;5.95;;
67747;SDS011;54543;50.712;6.070;2022-07-21T06:41:23;7.28;;;5.75;;
67747;SDS011;54543;50.712;6.070;2022-07-21T06:43:49;7.57;;;5.82;;
67747;SDS011;54543;50.712;6.070;2022-07-21T06:46:14;8.50;;;7.03;;
67747;SDS011;54543;50.712;6.070;2022-07-21T06:48:40;10.73;;;6.38;;
67747;SDS011;54543;50.712;6.070;2022-07-21T06:51:05;8.95;;;5.88;;
67747;SDS011;54543;50.712;6.070;2022-07-21T06:53:31;8.13;;;4.70;;
67747;SDS011;54543;50.712;6.070;2022-07-21T06:55:57;10.55;;;7.30;;
67747;SDS011;54543;50.712;6.070;2022-07-21T06:58:23;8.50;;;6.18;;
67747;SDS011;54543;50.712;6.070;2022-07-21T07:00:50;8.38;;;5.72;;
67747;SDS011;54543;50.712;6.070;2022-07-21T07:03:16;7.35;;;6.32;;
67747;SDS011;54543;50.712;6.070;2022-07-21T07:05:44;7.93;;;6.07;;
67747;SDS011;54543;50.712;6.070;2022-07-21T07:08:11;8.90;;;6.85;;
67747;SDS011;54543;50.712;6.070;2022-07-21T07:10:37;8.73;;;6.63;;
67747;SDS011;54543;50.712;6.070;2022-07-21T07:13:03;9.88;;;7.05;;
67747;SDS011;54543;50.712;6.070;2022-07-21T07:15:29;8.05;;;6.63;;
67747;SDS011;54543;50.712;6.070;2022-07-21T07:17:55;10.35;;;8.00;;
67747;SDS011;54543;50.712;6.070;2022-07-21T07:20:20;8.80;;;6.20;;
67747;SDS011;54543;50.712;6.070;2022-07-21T07:22:47;7.68;;;6.32;;
67747;SDS011;54543;50.712;6.070;2022-07-21T07:25:13;10.77;;;8.15;;
67747;SDS011;54543;50.712;6.070;2022-07-21T07:27:45;9.13;;;7.65;;
67747;SDS011;54543;50.712;6.070;2022-07-21T07:30:14;8.45;;;6.60;;
67747;SDS011;54543;50.712;6.070;2022-07-21T07:32:41;9.93;;;7.18;;
67747;SDS011;54543;50.712;6.070;2022-07-21T07:35:07;9.02;;;6.93;;
67747;SDS011;54543;50.712;6.070;2022-07-21T07:37:35;9.98;;;7.40;;
67747;SDS011;54543;50.712;6.070;2022-07-21T07:40:03;6.68;;;5.38;;
67747;SDS011;54543;50.712;6.070;2022-07-21T07:42:30;12.30;;;8.02;;
67747;SDS011;54543;50.712;6.070;2022-07-21T07:44:55;10.50;;;7.78;;
67747;SDS011;54543;50.712;6.070;2022-07-21T07:47:21;13.98;;;9.98;;
67747;SDS011;54543;50.712;6.070;2022-07-21T07:49:47;10.82;;;8.27;;
67747;SDS011;54543;50.712;6.070;2022-07-21T07:52:14;11.68;;;7.63;;
67747;SDS011;54543;50.712;6.070;2022-07-21T07:54:39;10.00;;;7.95;;
67747;SDS011;54543;50.712;6.070;2022-07-21T07:57:05;8.45;;;6.57;;
67747;SDS011;54543;50.712;6.070;2022-07-21T07:59:31;10.25;;;7.10;;
67747;SDS011;54543;50.712;6.070;2022-07-21T08:01:56;9.50;;;6.97;;
67747;SDS011;54543;50.712;6.070;2022-07-21T08:04:21;9.18;;;7.47;;
67747;SDS011;54543;50.712;6.070;2022-07-21T08:06:47;10.57;;;7.57;;
67747;SDS011;54543;50.712;6.070;2022-07-21T08:09:13;8.43;;;5.90;;
67747;SDS011;54543;50.712;6.070;2022-07-21T08:11:39;9.45;;;7.50;;
67747;SDS011;54543;50.712;6.070;2022-07-21T08:14:05;10.73;;;7.55;;
67747;SDS011;54543;50.712;6.070;2022-07-21T08:16:30;14.50;;;10.32;;
67747;SDS011;54543;50.712;6.070;2022-07-21T08:18:56;10.07;;;8.13;;
67747;SDS011;54543;50.712;6.070;2022-07-21T08:21:22;10.77;;;7.25;;
67747;SDS011;54543;50.712;6.070;2022-07-21T08:23:49;11.32;;;7.80;;
67747;SDS011;54543;50.712;6.070;2022-07-21T08:26:15;8.82;;;7.03;;
67747;SDS011;54543;50.712;6.070;2022-07-21T08:28:40;9.77;;;7.20;;
67747;SDS011;54543;50.712;6.070;2022-07-21T08:31:06;11.73;;;7.30;;
67747;SDS011;54543;50.712;6.070;2022-07-21T08:33:31;7.32;;;6.20;;
67747;SDS011;54543;50.712;6.070;2022-07-21T08:35:57;10.10;;;6.75;;
67747;SDS011;54543;50.712;6.070;2022-07-21T08:38:23;7.95;;;6.57;;
67747;SDS011;54543;50.712;6.070;2022-07-21T08:40:49;9.57;;;6.43;;
67747;SDS011;54543;50.712;6.070;2022-07-21T08:43:14;8.43;;;6.57;;
67747;SDS011;54543;50.712;6.070;2022-07-21T08:45:40;6.95;;;6.05;;
67747;SDS011;54543;50.712;6.070;2022-07-21T08:48:06;8.23;;;5.70;;
67747;SDS011;54543;50.712;6.070;2022-07-21T08:50:33;8.73;;;5.50;;
67747;SDS011;54543;50.712;6.070;2022-07-21T08:53:00;8.25;;;6.07;;
67747;SDS011;54543;50.712;6.070;2022-07-21T08:55:30;10.25;;;8.10;;
67747;SDS011;54543;50.712;6.070;2022-07-21T08:58:06;7.80;;;5.75;;
67747;SDS011;54543;50.712;6.070;2022-07-21T09:00:34;8.38;;;6.57;;
67747;SDS011;54543;50.712;6.070;2022-07-21T09:03:20;6.68;;;4.70;;
67747;SDS011;54543;50.712;6.070;2022-07-21T09:06:01;8.13;;;6.72;;
67747;SDS011;54543;50.712;6.070;2022-07-21T09:08:40;8.43;;;6.82;;
67747;SDS011;54543;50.712;6.070;2022-07-21T09:11:28;7.25;;;6.00;;
67747;SDS011;54543;50.712;6.070;2022-07-21T09:14:09;8.73;;;6.35;;
67747;SDS011;54543;50.712;6.070;2022-07-21T09:16:36;11.45;;;8.05;;
67747;SDS011;54543;50.712;6.070;2022-07-21T09:19:06;13.23;;;9.70;;
67747;SDS011;54543;50.712;6.070;2022-07-21T09:21:35;13.30;;;10.32;;
67747;SDS011;54543;50.712;6.070;2022-07-21T09:24:14;12.73;;;9.93;;
67747;SDS011;54543;50.712;6.070;2022-07-21T09:27:11;15.25;;;10.90;;
67747;SDS011;54543;50.712;6.070;2022-07-21T09:29:51;15.93;;;12.80;;
67747;SDS011;54543;50.712;6.070;2022-07-21T09:34:59;19.40;;;16.00;;
67747;SDS011;54543;50.712;6.070;2022-07-21T09:37:38;13.85;;;10.60;;
67747;SDS011;54543;50.712;6.070;2022-07-21T09:40:05;13.75;;;9.75;;
67747;SDS011;54543;50.712;6.070;2022-07-21T09:42:34;13.98;;;10.43;;
67747;SDS011;54543;50.712;6.070;2022-07-21T09:45:14;13.60;;;10.55;;
67747;SDS011;54543;50.712;6.070;2022-07-21T09:47:42;15.50;;;12.77;;
67747;SDS011;54543;50.712;6.070;2022-07-21T09:50:09;13.70;;;9.30;;
67747;SDS011;54543;50.712;6.070;2022-07-21T09:52:47;12.63;;;10.45;;
67747;SDS011;54543;50.712;6.070;2022-07-21T09:57:40;12.95;;;10.00;;
67747;SDS011;54543;50.712;6.070;2022-07-21T10:00:11;14.30;;;10.38;;
67747;SDS011;54543;50.712;6.070;2022-07-21T10:02:38;13.88;;;11.07;;
67747;SDS011;54543;50.712;6.070;2022-07-21T10:05:05;13.95;;;9.82;;
67747;SDS011;54543;50.712;6.070;2022-07-21T10:07:40;11.43;;;9.07;;
67747;SDS011;54543;50.712;6.070;2022-07-21T10:10:11;10.13;;;8.15;;
67747;SDS011;54543;50.712;6.070;2022-07-21T10:12:37;11.32;;;8.23;;
67747;SDS011;54543;50.712;6.070;2022-07-21T10:15:03;10.85;;;8.60;;
67747;SDS011;54543;50.712;6.070;2022-07-21T10:17:29;13.50;;;9.88;;
67747;SDS011;54543;50.712;6.070;2022-07-21T10:22:57;12.48;;;8.80;;
67747;SDS011;54543;50.712;6.070;2022-07-21T10:25:25;12.00;;;8.68;;
67747;SDS011;54543;50.712;6.070;2022-07-21T10:30:38;12.38;;;8.30;;
67747;SDS011;54543;50.712;6.070;2022-07-21T10:33:06;9.95;;;7.90;;
67747;SDS011;54543;50.712;6.070;2022-07-21T10:35:32;10.50;;;8.13;;
67747;SDS011;54543;50.712;6.070;2022-07-21T10:38:00;11.48;;;8.45;;
67747;SDS011;54543;50.712;6.070;2022-07-21T10:45:30;10.13;;;8.05;;
67747;SDS011;54543;50.712;6.070;2022-07-21T10:48:01;9.70;;;7.45;;
67747;SDS011;54543;50.712;6.070;2022-07-21T10:53:03;11.20;;;8.73;;
67747;SDS011;54543;50.712;6.070;2022-07-21T10:55:45;9.43;;;7.40;;
67747;SDS011;54543;50.712;6.070;2022-07-21T11:01:03;11.20;;;8.30;;
67747;SDS011;54543;50.712;6.070;2022-07-21T11:08:50;12.15;;;9.30;;
67747;SDS011;54543;50.712;6.070;2022-07-21T11:11:28;9.52;;;6.93;;
67747;SDS011;54543;50.712;6.070;2022-07-21T11:19:32;11.45;;;9.10;;
67747;SDS011;54543;50.712;6.070;2022-07-21T11:22:12;8.88;;;7.28;;
67747;SDS011;54543;50.712;6.070;2022-07-21T11:27:24;8.40;;;7.15;;
67747;SDS011;54543;50.712;6.070;2022-07-21T11:29:54;8.40;;;6.38;;
67747;SDS011;54543;50.712;6.070;2022-07-21T11:32:22;10.50;;;6.55;;
67747;SDS011;54543;50.712;6.070;2022-07-21T11:34:58;16.30;;;9.80;;
67747;SDS011;54543;50.712;6.070;2022-07-21T11:37:33;10.18;;;8.15;;
67747;SDS011;54543;50.712;6.070;2022-07-21T11:39:59;13.82;;;10.43;;
67747;SDS011;54543;50.712;6.070;2022-07-21T11:42:26;16.67;;;11.02;;
67747;SDS011;54543;50.712;6.070;2022-07-21T11:44:52;14.88;;;10.80;;
67747;SDS011;54543;50.712;6.070;2022-07-21T11:47:18;12.30;;;9.00;;
67747;SDS011;54543;50.712;6.070;2022-07-21T11:49:47;13.20;;;8.98;;
67747;SDS011;54543;50.712;6.070;2022-07-21T11:52:17;11.82;;;8.98;;
67747;SDS011;54543;50.712;6.070;2022-07-21T11:57:13;15.73;;;10.10;;
67747;SDS011;54543;50.712;6.070;2022-07-21T11:59:40;16.05;;;11.68;;
67747;SDS011;54543;50.712;6.070;2022-07-21T12:04:38;16.65;;;11.80;;
67747;SDS011;54543;50.712;6.070;2022-07-21T12:07:15;13.93;;;9.68;;
67747;SDS011;54543;50.712;6.070;2022-07-21T12:09:44;16.55;;;10.98;;
67747;SDS011;54543;50.712;6.070;2022-07-21T12:12:11;15.95;;;11.02;;
67747;SDS011;54543;50.712;6.070;2022-07-21T12:14:48;16.13;;;10.45;;
67747;SDS011;54543;50.712;6.070;2022-07-21T12:17:19;14.18;;;10.48;;
67747;SDS011;54543;50.712;6.070;2022-07-21T12:20:00;19.33;;;14.07;;
67747;SDS011;54543;50.712;6.070;2022-07-21T12:25:08;20.13;;;14.10;;
67747;SDS011;54543;50.712;6.070;2022-07-21T12:27:35;18.10;;;13.15;;
67747;SDS011;54543;50.712;6.070;2022-07-21T12:30:02;18.42;;;12.90;;
67747;SDS011;54543;50.712;6.070;2022-07-21T12:32:46;20.23;;;14.10;;
67747;SDS011;54543;50.712;6.070;2022-07-21T12:35:20;19.90;;;13.77;;
67747;SDS011;54543;50.712;6.070;2022-07-21T12:37:51;19.80;;;13.65;;
67747;SDS011;54543;50.712;6.070;2022-07-21T12:40:21;19.52;;;12.27;;
67747;SDS011;54543;50.712;6.070;2022-07-21T12:42:47;14.20;;;10.35;;
67747;SDS011;54543;50.712;6.070;2022-07-21T12:45:14;16.38;;;12.35;;
67747;SDS011;54543;50.712;6.070;2022-07-21T12:47:41;19.83;;;13.88;;
67747;SDS011;54543;50.712;6.070;2022-07-21T12:50:08;23.88;;;16.50;;
67747;SDS011;54543;50.712;6.070;2022-07-21T12:52:39;19.10;;;13.95;;
67747;SDS011;54543;50.712;6.070;2022-07-21T12:55:05;17.20;;;11.85;;
67747;SDS011;54543;50.712;6.070;2022-07-21T12:57:32;16.55;;;11.98;;
67747;SDS011;54543;50.712;6.070;2022-07-21T12:59:59;14.60;;;10.15;;
67747;SDS011;54543;50.712;6.070;2022-07-21T13:02:25;18.58;;;13.25;;
67747;SDS011;54543;50.712;6.070;2022-07-21T13:04:51;15.13;;;11.32;;
67747;SDS011;54543;50.712;6.070;2022-07-21T13:07:18;21.65;;;15.43;;
67747;SDS011;54543;50.712;6.070;2022-07-21T13:09:44;18.27;;;12.68;;
67747;SDS011;54543;50.712;6.070;2022-07-21T13:12:13;20.20;;;13.68;;
67747;SDS011;54543;50.712;6.070;2022-07-21T13:14:39;14.63;;;11.27;;
67747;SDS011;54543;50.712;6.070;2022-07-21T13:17:06;12.60;;;9.00;;
67747;SDS011;54543;50.712;6.070;2022-07-21T13:19:32;11.10;;;7.45;;
67747;SDS011;54543;50.712;6.070;2022-07-21T13:22:00;8.65;;;6.25;;
67747;SDS011;54543;50.712;6.070;2022-07-21T13:24:27;7.88;;;5.47;;
67747;SDS011;54543;50.712;6.070;2022-07-21T13:26:53;7.20;;;4.70;;
67747;SDS011;54543;50.712;6.070;2022-07-21T13:29:18;6.88;;;5.10;;
67747;SDS011;54543;50.712;6.070;2022-07-21T13:31:44;8.82;;;7.18;;
67747;SDS011;54543;50.712;6.070;2022-07-21T13:34:09;8.27;;;6.90;;
67747;SDS011;54543;50.712;6.070;2022-07-21T13:36:35;7.93;;;5.93;;
67747;SDS011;54543;50.712;6.070;2022-07-21T13:39:02;10.68;;;8.45;;
67747;SDS011;54543;50.712;6.070;2022-07-21T13:41:29;6.97;;;5.50;;
67747;SDS011;54543;50.712;6.070;2022-07-21T13:43:56;11.75;;;8.85;;
67747;SDS011;54543;50.712;6.070;2022-07-21T13:46:22;13.43;;;8.68;;
67747;SDS011;54543;50.712;6.070;2022-07-21T13:48:47;9.88;;;7.68;;
67747;SDS011;54543;50.712;6.070;2022-07-21T13:51:14;15.13;;;10.13;;
67747;SDS011;54543;50.712;6.070;2022-07-21T13:53:41;11.65;;;6.93;;
67747;SDS011;54543;50.712;6.070;2022-07-21T13:56:07;14.55;;;11.07;;
67747;SDS011;54543;50.712;6.070;2022-07-21T13:58:33;12.02;;;9.38;;
67747;SDS011;54543;50.712;6.070;2022-07-21T14:00:59;16.02;;;10.88;;
67747;SDS011;54543;50.712;6.070;2022-07-21T14:03:25;13.23;;;10.13;;
67747;SDS011;54543;50.712;6.070;2022-07-21T14:05:50;14.93;;;11.23;;
67747;SDS011;54543;50.712;6.070;2022-07-21T14:08:16;14.02;;;10.48;;
67747;SDS011;54543;50.712;6.070;2022-07-21T14:10:42;15.02;;;10.30;;
67747;SDS011;54543;50.712;6.070;2022-07-21T14:13:08;13.30;;;10.18;;
67747;SDS011;54543;50.712;6.070;2022-07-21T14:15:33;15.88;;;11.15;;
67747;SDS011;54543;50.712;6.070;2022-07-21T14:17:59;15.73;;;11.30;;
67747;SDS011;54543;50.712;6.070;2022-07-21T14:20:24;14.38;;;10.38;;
67747;SDS011;54543;50.712;6.070;2022-07-21T14:22:50;13.70;;;10.60;;
67747;SDS011;54543;50.712;6.070;2022-07-21T14:25:16;12.70;;;9.10;;
67747;SDS011;54543;50.712;6.070;2022-07-21T14:27:45;12.82;;;8.73;;
67747;SDS011;54543;50.712;6.070;2022-07-21T14:30:15;13.30;;;9.90;;
67747;SDS011;54543;50.712;6.070;2022-07-21T14:32:42;15.15;;;10.52;;
67747;SDS011;54543;50.712;6.070;2022-07-21T14:35:08;16.75;;;10.25;;
67747;SDS011;54543;50.712;6.070;2022-07-21T14:37:33;14.07;;;8.82;;
67747;SDS011;54543;50.712;6.070;2022-07-21T14:39:59;12.73;;;8.95;;
67747;SDS011;54543;50.712;6.070;2022-07-21T14:42:25;9.23;;;6.97;;
67747;SDS011;54543;50.712;6.070;2022-07-21T14:44:50;19.08;;;11.18;;
67747;SDS011;54543;50.712;6.070;2022-07-21T14:47:16;13.55;;;10.27;;
67747;SDS011;54543;50.712;6.070;2022-07-21T14:49:41;17.10;;;11.02;;
67747;SDS011;54543;50.712;6.070;2022-07-21T14:52:07;16.98;;;11.05;;
67747;SDS011;54543;50.712;6.070;2022-07-21T14:54:34;15.20;;;10.38;;
67747;SDS011;54543;50.712;6.070;2022-07-21T14:57:01;16.92;;;11.20;;
67747;SDS011;54543;50.712;6.070;2022-07-21T14:59:27;16.83;;;11.63;;
67747;SDS011;54543;50.712;6.070;2022-07-21T15:01:53;19.17;;;11.55;;
67747;SDS011;54543;50.712;6.070;2022-07-21T15:04:18;16.20;;;12.20;;
67747;SDS011;54543;50.712;6.070;2022-07-21T15:06:45;19.05;;;12.02;;
67747;SDS011;54543;50.712;6.070;2022-07-21T15:09:11;21.52;;;13.15;;
67747;SDS011;54543;50.712;6.070;2022-07-21T15:11:37;18.23;;;12.23;;
67747;SDS011;54543;50.712;6.070;2022-07-21T15:14:03;20.10;;;12.48;;
67747;SDS011;54543;50.712;6.070;2022-07-21T15:16:28;15.68;;;10.73;;
67747;SDS011;54543;50.712;6.070;2022-07-21T15:18:54;17.60;;;11.52;;
67747;SDS011;54543;50.712;6.070;2022-07-21T15:21:20;16.30;;;11.52;;
67747;SDS011;54543;50.712;6.070;2022-07-21T15:23:45;19.35;;;12.55;;
67747;SDS011;54543;50.712;6.070;2022-07-21T15:26:11;17.55;;;11.90;;